< Typhoon 200808 2008 Season Typhoon 200810 >
Typhoon 200809 (KAMMURI)
General InformationTrack Information on Google MapsDetailed Wind InformationAccess Analytics MapList of All Images || NewsDisaster Info.WeblogTrackbackTyphoon FrontTyphoon ImaginationResourceGoogle EarthGE AnimationAtom FeedGeoJSON
Detalied Best Track (Time Zone = UTC)
Year Month Day Hour Lat. Long. Pressure (hPa) Wind (kt) Class Image Chart
2008 8 3 12 18.9 120.5 1002 0 2 Image Chart
2008 8 3 18 19.0 119.6 1002 0 2 Image Chart
2008 8 4 00 19.1 118.8 1000 0 2 Image Chart
2008 8 4 06 19.2 118.0 998 0 2 Image Chart
2008 8 4 12 19.3 117.4 996 0 2 Image Chart
2008 8 4 18 19.6 116.8 992 0 2 Image Chart
2008 8 5 00 20.0 116.2 990 35 3 Image Chart
2008 8 5 06 20.2 115.7 985 40 3 Image Chart
2008 8 5 12 20.4 115.2 985 40 3 Image Chart
2008 8 5 18 20.7 114.5 980 45 3 Image Chart
2008 8 6 00 20.9 113.9 975 50 4 Image Chart
2008 8 6 06 21.4 112.8 975 50 4 Image Chart
2008 8 6 12 21.4 111.5 980 45 3 Image Chart
2008 8 6 18 21.4 110.2 985 40 3 Image Chart
2008 8 7 00 21.1 109.3 985 40 3 Image Chart
2008 8 7 06 21.3 108.1 985 40 3 Image Chart
2008 8 7 12 21.4 106.9 990 35 3 Image Chart
2008 8 7 18 21.3 105.7 994 0 2 Image Chart
2008 8 8 00 21.2 104.5 996 0 2 Image Chart
2008 8 8 06 21.4 103.0 998 0 2 Image Chart
Japan Meteorological Agency Best Track Data | Correction Date : 2008-09-26
< Typhoon 200808 2008 Season Typhoon 200810 >

Help